Aviation Digital Data Service (ADDS)

Output produced by METARs form (0041 UTC 27 April 2018)
found at http://aviationweather.gov/adds/metars/
 
KDFW 262353Z 04005KT 10SM FEW045 SCT170 BKN250 20/08 A2994 RMK AO2 SLP136 T02000078 10228 20183 55004